createdAt,value
2019-03-21T00:30:01.313Z,0.1
2019-03-21T00:32:01.105Z,0.2
2019-03-21T00:33:01.094Z,0.3
2019-03-21T00:35:01.372Z,0.4
2019-03-21T00:36:01.102Z,0.5
2019-03-21T00:38:01.098Z,0.6
2019-03-21T00:39:01.156Z,0.7
2019-03-21T00:41:01.256Z,0.8
2019-03-21T00:42:01.099Z,0.9
2019-03-21T00:44:01.162Z,1.0
2019-03-21T00:45:01.111Z,1.0
2019-03-21T01:00:01.399Z,1.0
2019-03-21T01:01:01.115Z,0.9
2019-03-21T01:04:01.183Z,0.8
2019-03-21T01:05:01.326Z,0.7
2019-03-21T01:07:01.920Z,0.6
2019-03-21T01:08:01.107Z,0.5
2019-03-21T01:10:01.261Z,0.4
2019-03-21T01:11:01.142Z,0.3
2019-03-21T01:13:01.175Z,0.2
2019-03-21T01:14:01.112Z,0.1
2019-03-21T01:15:01.325Z,0.1
2019-03-21T04:31:01.314Z,0.1
2019-03-21T04:33:06.182Z,0.2
2019-03-21T04:34:01.110Z,0.3
2019-03-21T04:36:01.259Z,0.4
2019-03-21T04:37:01.142Z,0.5
2019-03-21T04:39:01.104Z,0.6
2019-03-21T04:40:01.111Z,0.7
2019-03-21T04:41:01.344Z,0.9
2019-03-21T04:42:01.106Z,1.0
2019-03-21T04:43:01.108Z,1.2
2019-03-21T04:44:01.108Z,1.4
2019-03-21T04:45:01.104Z,1.7
2019-03-21T04:46:03.511Z,1.9
2019-03-21T04:47:01.142Z,2.1
2019-03-21T04:48:01.112Z,2.5
2019-03-21T04:49:01.108Z,2.9
2019-03-21T04:50:01.106Z,3.3
2019-03-21T04:51:01.254Z,3.9
2019-03-21T04:52:06.079Z,4.5
2019-03-21T04:53:01.111Z,5.3
2019-03-21T04:54:01.111Z,6.2
2019-03-21T04:55:01.069Z,7.2
2019-03-21T04:56:01.274Z,8.3
2019-03-21T04:57:06.116Z,9.7
2019-03-21T04:58:01.173Z,11.1
2019-03-21T04:59:01.103Z,12.9
2019-03-21T05:00:03.523Z,15.3
2019-03-21T05:01:01.253Z,17.9
2019-03-21T05:02:01.134Z,21.1
2019-03-21T05:03:01.115Z,25.3
2019-03-21T05:04:01.109Z,30.3
2019-03-21T05:05:01.110Z,36.0
2019-03-21T05:06:01.285Z,43.4
2019-03-21T05:07:06.118Z,51.0
2019-03-21T05:08:01.071Z,59.9
2019-03-21T05:09:01.111Z,70.1
2019-03-21T05:11:01.244Z,83.4
2019-03-21T05:12:01.100Z,98.3
2019-03-21T05:13:01.094Z,116.1
2019-03-21T05:14:01.097Z,135.9
2019-03-21T05:15:01.086Z,157.7
2019-03-21T05:16:01.237Z,181.5
2019-03-21T05:17:01.096Z,207.7
2019-03-21T05:18:01.095Z,235.4
2019-03-21T05:19:01.099Z,267.7
2019-03-21T05:20:01.100Z,304.9
2019-03-21T05:21:01.244Z,342.5
2019-03-21T05:22:01.125Z,388.4
2019-03-21T05:23:01.102Z,433.8
2019-03-21T05:24:01.097Z,478.4
2019-03-21T05:25:01.167Z,523.1
2019-03-21T05:26:03.771Z,567.9
2019-03-21T05:27:06.114Z,621.5
2019-03-21T05:28:01.104Z,675.4
2019-03-21T05:29:01.106Z,732.9
2019-03-21T05:30:01.176Z,791.3
2019-03-21T05:31:01.255Z,845.2
2019-03-21T05:32:06.076Z,905.0
2019-03-21T05:33:01.937Z,964.3
2019-03-21T05:34:01.095Z,1029.7
2019-03-21T05:35:01.099Z,1104.4
2019-03-21T05:36:01.279Z,1186.7
2019-03-21T05:37:01.125Z,1264.1
2019-03-21T05:38:01.065Z,1332.9
2019-03-21T05:39:01.095Z,1400.1
2019-03-21T05:40:01.064Z,1485.8
2019-03-21T05:41:01.526Z,1586.5
2019-03-21T05:42:01.137Z,1697.9
2019-03-21T05:43:01.072Z,1836.3
2019-03-21T05:44:01.105Z,1968.2
2019-03-21T05:45:01.096Z,2080.6
2019-03-21T05:46:01.214Z,2205.8
2019-03-21T05:47:01.098Z,2343.3
2019-03-21T05:48:01.097Z,2480.5
2019-03-21T05:49:01.096Z,2617.6
2019-03-21T05:50:01.118Z,2763.9
2019-03-21T05:51:01.226Z,2932.3
2019-03-21T05:52:01.096Z,3114.0
2019-03-21T05:53:01.100Z,3330.3
2019-03-21T05:54:01.109Z,3572.9
2019-03-21T05:55:01.131Z,3802.8
2019-03-21T05:56:01.258Z,4023.5
2019-03-21T05:57:01.105Z,4265.3
2019-03-21T05:58:01.111Z,4460.9
2019-03-21T05:59:02.050Z,4648.3
2019-03-21T06:00:01.154Z,4853.3
2019-03-21T06:01:01.232Z,5034.5
2019-03-21T06:02:01.154Z,5193.4
2019-03-21T06:03:01.099Z,5366.9
2019-03-21T06:04:01.182Z,5539.1
2019-03-21T06:05:01.138Z,5654.8
2019-03-21T06:06:01.265Z,5760.6
2019-03-21T06:07:01.110Z,5896.7
2019-03-21T06:08:01.110Z,5987.8
2019-03-21T06:09:01.805Z,6080.0
2019-03-21T06:10:01.136Z,6201.5
2019-03-21T06:11:01.581Z,6348.1
2019-03-21T06:12:01.108Z,6540.1
2019-03-21T06:13:01.109Z,6879.6
2019-03-21T06:14:01.109Z,7271.5
2019-03-21T06:15:01.152Z,7755.0
2019-03-21T06:16:01.218Z,8232.7
2019-03-21T06:17:01.107Z,8771.8
2019-03-21T06:18:01.109Z,9273.5
2019-03-21T06:19:01.113Z,9831.0
2019-03-21T06:20:03.831Z,10462.1
2019-03-21T06:21:01.267Z,11094.5
2019-03-21T06:22:01.107Z,11665.1
2019-03-21T06:23:01.108Z,12197.5
2019-03-21T06:24:01.077Z,12765.6
2019-03-21T06:25:01.112Z,13361.9
2019-03-21T06:26:01.233Z,13923.2
2019-03-21T06:27:01.109Z,14406.4
2019-03-21T06:28:01.116Z,14727.5
2019-03-21T06:29:01.112Z,15066.9
2019-03-21T06:30:06.124Z,15275.3
2019-03-21T06:31:01.253Z,15565.9
2019-03-21T06:32:01.111Z,15953.7
2019-03-21T06:33:01.109Z,16314.4
2019-03-21T06:34:01.112Z,16530.6
2019-03-21T06:36:01.228Z,16726.4
2019-03-21T06:37:01.102Z,16949.5
2019-03-21T06:38:01.098Z,17144.5
2019-03-21T06:39:01.092Z,17417.3
2019-03-21T06:40:01.088Z,17376.9
2019-03-21T06:41:01.278Z,17012.1
2019-03-21T06:42:01.090Z,16532.5
2019-03-21T06:43:01.095Z,16017.1
2019-03-21T06:44:01.101Z,15576.3
2019-03-21T06:45:01.101Z,15220.8
2019-03-21T06:46:01.252Z,15116.4
2019-03-21T06:47:01.100Z,15039.9
2019-03-21T06:48:01.095Z,14836.1
2019-03-21T06:49:01.153Z,14616.5
2019-03-21T06:50:01.137Z,14440.2
2019-03-21T06:51:01.317Z,14268.9
2019-03-21T06:52:01.106Z,14024.9
2019-03-21T06:53:03.172Z,13945.6
2019-03-21T06:54:01.100Z,13875.8
2019-03-21T06:55:01.119Z,14185.8
2019-03-21T06:56:01.318Z,14680.4
2019-03-21T06:57:02.491Z,15431.3
2019-03-21T06:58:01.107Z,16474.3
2019-03-21T06:59:01.105Z,17599.1
2019-03-21T07:00:01.102Z,18630.1
2019-03-21T07:01:01.251Z,19360.4
2019-03-21T07:02:01.065Z,19946.7
2019-03-21T07:03:01.098Z,20453.9
2019-03-21T07:04:06.790Z,21104.0
2019-03-21T07:05:01.109Z,21804.3
2019-03-21T07:06:01.253Z,22414.9
2019-03-21T07:07:07.829Z,23088.1
2019-03-21T07:08:01.113Z,23725.6
2019-03-21T07:09:01.138Z,24532.1
2019-03-21T07:11:01.243Z,25152.5
2019-03-21T07:12:01.099Z,25890.8
2019-03-21T07:13:01.062Z,26414.9
2019-03-21T07:14:01.091Z,26758.7
2019-03-21T07:15:01.076Z,26835.6
2019-03-21T07:16:01.248Z,26852.5
2019-03-21T07:17:01.102Z,27145.6
2019-03-21T07:18:01.096Z,27365.3
2019-03-21T07:19:01.130Z,27701.5
2019-03-21T07:20:01.064Z,27830.7
2019-03-21T07:21:01.352Z,28041.5
2019-03-21T07:22:01.104Z,28663.0
2019-03-21T07:23:01.106Z,29143.9
2019-03-21T07:24:01.098Z,29610.6
2019-03-21T07:25:01.099Z,30027.4
2019-03-21T07:26:01.308Z,30469.1
2019-03-21T07:27:01.072Z,30953.5
2019-03-21T07:28:01.101Z,31746.9
2019-03-21T07:29:06.447Z,32462.7
2019-03-21T07:30:01.114Z,33099.3
2019-03-21T07:31:01.244Z,33715.5
2019-03-21T07:32:01.096Z,34094.1
2019-03-21T07:33:01.095Z,34660.5
2019-03-21T07:34:01.127Z,35190.1
2019-03-21T07:35:01.076Z,35902.7
2019-03-21T07:36:01.283Z,36553.0
2019-03-21T07:37:01.097Z,37009.0
2019-03-21T07:38:01.115Z,37593.7
2019-03-21T07:39:01.611Z,38339.7
2019-03-21T07:40:01.109Z,38727.9
2019-03-21T07:41:01.287Z,38958.0
2019-03-21T07:42:01.459Z,39072.0
2019-03-21T07:43:01.099Z,38779.3
2019-03-21T07:44:01.169Z,38571.9
2019-03-21T07:45:01.106Z,38557.5
2019-03-21T07:46:01.317Z,38617.1
2019-03-21T07:47:12.004Z,38688.8
2019-03-21T07:48:01.068Z,38815.1
2019-03-21T07:49:01.111Z,39142.2
2019-03-21T07:50:06.118Z,39463.9
2019-03-21T07:51:01.220Z,39398.1
2019-03-21T07:52:01.106Z,39313.8
2019-03-21T07:53:01.111Z,38735.2
2019-03-21T07:54:01.107Z,37653.4
2019-03-21T07:55:01.194Z,36611.2
2019-03-21T07:56:01.261Z,36590.9
2019-03-21T07:57:01.107Z,37228.8
2019-03-21T07:58:01.116Z,37874.9
2019-03-21T07:59:01.112Z,39145.8
2019-03-21T08:00:01.117Z,40246.1
2019-03-21T08:01:01.228Z,41650.6
2019-03-21T08:02:01.115Z,42789.1
2019-03-21T08:03:01.111Z,44136.7
2019-03-21T08:04:02.941Z,45407.7
2019-03-21T08:05:01.143Z,46713.1
2019-03-21T08:06:01.231Z,48577.7
2019-03-21T08:07:01.109Z,50307.7
2019-03-21T08:08:01.175Z,52504.7
2019-03-21T08:09:01.113Z,54970.0
2019-03-21T08:10:01.169Z,57604.3
2019-03-21T08:11:02.103Z,59407.3
2019-03-21T08:12:01.117Z,60582.7
2019-03-21T08:13:01.111Z,61472.7
2019-03-21T08:14:01.141Z,61482.1
2019-03-21T08:15:01.139Z,61598.9
2019-03-21T08:16:01.271Z,61156.5
2019-03-21T08:17:01.115Z,61078.3
2019-03-21T08:18:01.109Z,60762.3
2019-03-21T08:19:01.118Z,60330.0
2019-03-21T08:21:01.477Z,59811.5
2019-03-21T08:22:01.102Z,58917.1
2019-03-21T08:23:01.101Z,57885.3
2019-03-21T08:24:01.103Z,57013.7
2019-03-21T08:25:01.937Z,55886.7
2019-03-21T08:26:01.284Z,54690.1
2019-03-21T08:27:01.426Z,53529.5
2019-03-21T08:28:01.099Z,52384.3
2019-03-21T08:29:01.098Z,51765.1
2019-03-21T08:30:01.103Z,50994.5
2019-03-21T08:31:01.278Z,50682.8
2019-03-21T08:32:01.104Z,50302.3
2019-03-21T08:33:02.996Z,50000.1
2019-03-21T08:34:01.108Z,49507.3
2019-03-21T08:35:01.103Z,48862.1
2019-03-21T08:36:01.284Z,48296.8
2019-03-21T08:37:01.098Z,47792.0
2019-03-21T08:38:01.098Z,47696.2
2019-03-21T08:39:01.101Z,47534.4
2019-03-21T08:40:01.105Z,47700.1
2019-03-21T08:41:01.251Z,48085.7
2019-03-21T08:42:01.067Z,48408.4
2019-03-21T08:43:01.107Z,48876.5
2019-03-21T08:44:01.103Z,49380.7
2019-03-21T08:45:01.106Z,50441.8
2019-03-21T08:46:01.268Z,51176.4
2019-03-21T08:47:01.121Z,52263.7
2019-03-21T08:48:01.097Z,53413.9
2019-03-21T08:49:01.178Z,54666.9
2019-03-21T08:50:01.096Z,55881.8
2019-03-21T08:51:07.984Z,56717.3
2019-03-21T08:52:06.076Z,57977.1
2019-03-21T08:53:01.100Z,59104.7
2019-03-21T08:54:01.098Z,59870.7
2019-03-21T08:55:01.105Z,60831.9
2019-03-21T08:56:01.353Z,61643.0
2019-03-21T08:57:01.132Z,62480.8
2019-03-21T08:58:01.834Z,63157.9
2019-03-21T08:59:01.072Z,63721.2
2019-03-21T09:00:01.088Z,64041.5
2019-03-21T09:01:01.219Z,64319.6
2019-03-21T09:02:01.124Z,64521.9
2019-03-21T09:05:01.229Z,64673.9
2019-03-21T09:06:01.421Z,65128.1
2019-03-21T09:07:01.102Z,65267.5
2019-03-21T09:09:01.110Z,65535.0
2019-03-21T09:15:01.175Z,65535.0
2019-03-21T09:30:01.319Z,65535.0
2019-03-21T09:45:01.163Z,65535.0
2019-03-21T10:00:01.326Z,65535.0
2019-03-21T10:15:01.232Z,65535.0
2019-03-21T10:30:01.390Z,65535.0
2019-03-21T10:45:01.354Z,65535.0
2019-03-21T11:00:02.316Z,65535.0
2019-03-21T11:15:01.241Z,65535.0
2019-03-21T11:30:01.443Z,65535.0
2019-03-21T11:43:01.247Z,65063.6
2019-03-21T11:44:01.116Z,64958.8
2019-03-21T11:45:01.115Z,64758.3
2019-03-21T11:46:01.245Z,64523.7
2019-03-21T11:47:01.098Z,64053.1
2019-03-21T11:48:01.130Z,63271.0
2019-03-21T11:49:01.103Z,62345.0
2019-03-21T11:50:01.081Z,61236.9
2019-03-21T11:51:01.265Z,60064.5
2019-03-21T11:52:01.112Z,58927.9
2019-03-21T11:53:06.117Z,57723.5
2019-03-21T11:54:01.109Z,56488.1
2019-03-21T11:55:01.109Z,55473.9
2019-03-21T11:56:01.319Z,54382.7
2019-03-21T11:57:01.113Z,53138.1
2019-03-21T11:58:06.122Z,52233.0
2019-03-21T11:59:01.108Z,51064.8
2019-03-21T12:00:01.115Z,50290.9
2019-03-21T12:01:01.322Z,49393.6
2019-03-21T12:02:01.110Z,48847.0
2019-03-21T12:03:01.104Z,48711.3
2019-03-21T12:04:06.109Z,49002.6
2019-03-21T12:05:01.113Z,49832.6
2019-03-21T12:06:01.258Z,50585.4
2019-03-21T12:07:01.111Z,51443.5
2019-03-21T12:08:01.111Z,52434.5
2019-03-21T12:09:06.120Z,53585.2
2019-03-21T12:10:02.002Z,54548.7
2019-03-21T12:12:01.098Z,55473.0
2019-03-21T12:13:01.095Z,56717.7
2019-03-21T12:14:01.111Z,58094.1
2019-03-21T12:15:01.103Z,59367.1
2019-03-21T12:16:01.239Z,60341.6
2019-03-21T12:17:01.089Z,61473.4
2019-03-21T12:18:01.088Z,62490.7
2019-03-21T12:19:01.109Z,63408.4
2019-03-21T12:20:01.094Z,64043.1
2019-03-21T12:21:01.318Z,64321.3
2019-03-21T12:22:01.095Z,64740.9
2019-03-21T12:23:01.094Z,65019.3
2019-03-21T12:24:01.118Z,65232.8
2019-03-21T12:25:01.086Z,65317.4
2019-03-21T12:26:01.307Z,65368.1
2019-03-21T12:27:01.095Z,65535.0
2019-03-21T12:30:06.128Z,65535.0
2019-03-21T12:45:01.336Z,65535.0
2019-03-21T12:46:01.106Z,65351.1
2019-03-21T12:47:01.110Z,65051.7
2019-03-21T12:48:06.085Z,64930.5
2019-03-21T12:49:01.106Z,64585.5
2019-03-21T12:50:01.271Z,64503.4
2019-03-21T12:51:01.105Z,64493.5
2019-03-21T12:57:01.097Z,63986.2
2019-03-21T12:58:01.098Z,63248.9
2019-03-21T12:59:02.449Z,62594.0
2019-03-21T13:00:01.106Z,61827.6
2019-03-21T13:01:01.245Z,60891.8
2019-03-21T13:02:01.104Z,59690.3
2019-03-21T13:03:01.094Z,58832.9
2019-03-21T13:04:01.125Z,57655.1
2019-03-21T13:05:01.098Z,56750.3
2019-03-21T13:06:01.249Z,55649.7
2019-03-21T13:07:01.096Z,54470.6
2019-03-21T13:08:01.068Z,53297.0
2019-03-21T13:09:01.132Z,52092.5
2019-03-21T13:10:01.104Z,50641.9
2019-03-21T13:11:01.258Z,49356.7
2019-03-21T13:12:01.067Z,48775.6
2019-03-21T13:13:01.096Z,48437.7
2019-03-21T13:14:01.168Z,47980.0
2019-03-21T13:15:01.103Z,47667.8
2019-03-21T13:16:01.247Z,47285.1
2019-03-21T13:17:01.092Z,47527.3
2019-03-21T13:18:01.107Z,47811.2
2019-03-21T13:19:01.132Z,48658.9
2019-03-21T13:20:01.092Z,49817.7
2019-03-21T13:21:01.256Z,51000.3
2019-03-21T13:22:01.110Z,52189.3
2019-03-21T13:23:01.100Z,52987.3
2019-03-21T13:24:06.097Z,53821.3
2019-03-21T13:25:01.094Z,55035.2
2019-03-21T13:26:02.361Z,56320.5
2019-03-21T13:27:01.103Z,57408.9
2019-03-21T13:28:01.110Z,58079.2
2019-03-21T13:29:06.106Z,58671.0
2019-03-21T13:30:03.432Z,59147.9
2019-03-21T13:31:01.240Z,60086.7
2019-03-21T13:32:01.101Z,60804.4
2019-03-21T13:33:01.099Z,61222.6
2019-03-21T13:34:06.111Z,61673.9
2019-03-21T13:35:01.076Z,61764.9
2019-03-21T13:38:01.277Z,62140.6
2019-03-21T13:39:06.097Z,62511.0
2019-03-21T13:40:01.106Z,62747.7
2019-03-21T13:43:01.324Z,63152.6
2019-03-21T13:44:06.115Z,63673.4
2019-03-21T13:45:01.120Z,64275.1
2019-03-21T13:46:01.109Z,64654.7
2019-03-21T13:47:03.285Z,65080.3
2019-03-21T13:48:01.256Z,65535.0
2019-03-21T13:58:01.110Z,65218.1
2019-03-21T13:59:06.118Z,65043.0
2019-03-21T14:00:01.117Z,64931.7
2019-03-21T14:14:01.221Z,65248.7
2019-03-21T14:15:06.059Z,65423.7
2019-03-21T14:16:01.275Z,65535.0
2019-03-21T14:20:01.134Z,65039.4
2019-03-21T14:21:01.242Z,64315.7
2019-03-21T14:23:01.162Z,64191.6
2019-03-21T14:25:01.110Z,63919.3
2019-03-21T14:26:01.248Z,63264.7
2019-03-21T14:27:01.094Z,62499.5
2019-03-21T14:28:01.094Z,61795.7
2019-03-21T14:29:11.786Z,60878.5
2019-03-21T14:30:02.236Z,59915.5
2019-03-21T14:31:01.250Z,59583.1
2019-03-21T14:32:01.103Z,59181.0
2019-03-21T14:33:01.108Z,58203.5
2019-03-21T14:34:06.122Z,56685.6
2019-03-21T14:35:01.122Z,55915.9
2019-03-21T14:37:01.096Z,55344.9
2019-03-21T14:38:01.096Z,53628.8
2019-03-21T14:39:06.108Z,51859.0
2019-03-21T14:40:01.168Z,50155.1
2019-03-21T14:41:01.250Z,48815.5
2019-03-21T14:42:01.096Z,47554.7
2019-03-21T14:43:01.093Z,46240.6
2019-03-21T14:44:01.119Z,44833.8
2019-03-21T14:45:01.100Z,44038.9
2019-03-21T14:46:01.265Z,43106.6
2019-03-21T14:47:01.097Z,41578.2
2019-03-21T14:48:01.100Z,40124.5
2019-03-21T14:49:06.106Z,39190.2
2019-03-21T14:50:01.104Z,38989.3
2019-03-21T14:51:01.248Z,38555.5
2019-03-21T14:52:01.102Z,38125.9
2019-03-21T14:53:01.101Z,38163.4
2019-03-21T14:54:06.108Z,38498.7
2019-03-21T14:55:01.104Z,38068.3
2019-03-21T14:56:01.259Z,37416.0
2019-03-21T14:57:01.098Z,37046.3
2019-03-21T14:58:01.097Z,36729.7
2019-03-21T14:59:01.131Z,36508.5
2019-03-21T15:00:01.118Z,35892.9
2019-03-21T15:01:01.238Z,35656.4
2019-03-21T15:02:01.101Z,35138.4
2019-03-21T15:03:02.195Z,34647.5
2019-03-21T15:04:01.126Z,34148.2
2019-03-21T15:05:01.107Z,33653.7
2019-03-21T15:06:01.256Z,33446.5
2019-03-21T15:07:01.107Z,32868.7
2019-03-21T15:08:01.098Z,32368.5
2019-03-21T15:09:01.130Z,31817.4
2019-03-21T15:10:01.109Z,32191.9
2019-03-21T15:11:01.247Z,32602.8
2019-03-21T15:12:01.167Z,32976.2
2019-03-21T15:13:01.109Z,33025.9
2019-03-21T15:14:01.129Z,33325.6
2019-03-21T15:15:01.109Z,33405.2
2019-03-21T15:16:01.267Z,33499.5
2019-03-21T15:17:01.103Z,33510.0
2019-03-21T15:18:01.105Z,33654.5
2019-03-21T15:19:01.108Z,33834.1
2019-03-21T15:20:01.549Z,33786.8
2019-03-21T15:21:01.254Z,33479.7
2019-03-21T15:22:01.104Z,33195.0
2019-03-21T15:23:01.114Z,32808.9
2019-03-21T15:24:01.142Z,32558.1
2019-03-21T15:25:01.589Z,31963.4
2019-03-21T15:26:01.263Z,31229.1
2019-03-21T15:27:01.116Z,30802.5
2019-03-21T15:28:01.101Z,30743.9
2019-03-21T15:29:01.138Z,30525.3
2019-03-21T15:30:01.131Z,30242.6
2019-03-21T15:32:01.093Z,29713.6
2019-03-21T15:33:01.093Z,29522.3
2019-03-21T15:34:01.126Z,29168.3
2019-03-21T15:35:01.117Z,28667.1
2019-03-21T15:36:01.278Z,28165.6
2019-03-21T15:37:01.095Z,27489.9
2019-03-21T15:38:01.102Z,27222.5
2019-03-21T15:39:01.141Z,26954.2
2019-03-21T15:40:01.112Z,26383.1
2019-03-21T15:41:01.217Z,26007.4
2019-03-21T15:42:01.071Z,25766.3
2019-03-21T15:43:01.103Z,25510.9
2019-03-21T15:44:06.114Z,25189.9
2019-03-21T15:45:10.555Z,24481.2
2019-03-21T15:46:01.238Z,23907.5
2019-03-21T15:47:01.095Z,23700.0
2019-03-21T15:48:01.895Z,23221.1
2019-03-21T15:49:01.097Z,22770.2
2019-03-21T15:50:01.117Z,22241.5
2019-03-21T15:51:04.626Z,21930.7
2019-03-21T15:52:01.093Z,21993.8
2019-03-21T15:53:01.099Z,21558.0
2019-03-21T15:54:01.125Z,20888.6
2019-03-21T15:55:01.104Z,20334.3
2019-03-21T15:56:01.256Z,19619.3
2019-03-21T15:57:01.095Z,19064.4
2019-03-21T15:58:01.094Z,18038.8
2019-03-21T15:59:01.126Z,17280.1
2019-03-21T16:00:01.117Z,16635.1
2019-03-21T16:01:01.247Z,16212.6
2019-03-21T16:02:01.105Z,15632.6
2019-03-21T16:03:01.097Z,15658.9
2019-03-21T16:04:01.097Z,15735.1
2019-03-21T16:05:01.103Z,15903.1
2019-03-21T16:06:01.247Z,15774.1
2019-03-21T16:07:01.104Z,15393.5
2019-03-21T16:08:01.818Z,15403.9
2019-03-21T16:09:01.125Z,15618.9
2019-03-21T16:10:01.102Z,15754.2
2019-03-21T16:11:01.297Z,15922.5
2019-03-21T16:12:01.064Z,15986.3
2019-03-21T16:13:01.103Z,16272.4
2019-03-21T16:14:01.110Z,16470.5
2019-03-21T16:15:01.108Z,16712.9
2019-03-21T16:16:01.282Z,17032.4
2019-03-21T16:17:01.109Z,17030.9
2019-03-21T16:18:01.109Z,16694.4
2019-03-21T16:19:01.105Z,16116.5
2019-03-21T16:20:01.109Z,15800.7
2019-03-21T16:21:01.299Z,15603.1
2019-03-21T16:22:01.109Z,15376.1
2019-03-21T16:23:01.147Z,15343.5
2019-03-21T16:24:05.277Z,15452.0
2019-03-21T16:25:01.106Z,15344.1
2019-03-21T16:26:01.357Z,15226.4
2019-03-21T16:27:01.111Z,15119.3
2019-03-21T16:28:01.108Z,15053.5
2019-03-21T16:29:01.105Z,14832.9
2019-03-21T16:30:01.074Z,14704.5
2019-03-21T16:31:01.301Z,14419.1
2019-03-21T16:32:02.381Z,14185.3
2019-03-21T16:33:01.102Z,13987.4
2019-03-21T16:34:01.652Z,13876.0
2019-03-21T16:35:01.103Z,13715.9
2019-03-21T16:37:01.485Z,13421.1
2019-03-21T16:38:01.088Z,13198.7
2019-03-21T16:39:01.060Z,12842.0
2019-03-21T16:40:01.161Z,12294.7
2019-03-21T16:41:01.098Z,12016.0
2019-03-21T16:42:01.270Z,11640.0
2019-03-21T16:43:01.160Z,11238.8
2019-03-21T16:44:01.097Z,10817.2
2019-03-21T16:45:01.104Z,10559.4
2019-03-21T16:46:01.094Z,10241.9
2019-03-21T16:47:01.531Z,9828.3
2019-03-21T16:48:01.102Z,9483.1
2019-03-21T16:49:01.097Z,9072.8
2019-03-21T16:50:01.102Z,8677.8
2019-03-21T16:51:02.958Z,8259.9
2019-03-21T16:52:16.216Z,7948.9
2019-03-21T16:53:16.088Z,7637.9
2019-03-21T16:54:01.966Z,7340.3
2019-03-21T16:55:01.099Z,7064.3
2019-03-21T16:56:01.100Z,6786.2
2019-03-21T16:57:01.061Z,6531.5
2019-03-21T16:58:06.109Z,6294.8
2019-03-21T16:59:01.438Z,6040.5
2019-03-21T17:00:06.167Z,5736.7
2019-03-21T17:01:01.108Z,5490.0
2019-03-21T17:02:01.093Z,5350.0
2019-03-21T17:03:01.093Z,5242.1
2019-03-21T17:04:01.251Z,5163.4
2019-03-21T17:05:01.126Z,5185.1
2019-03-21T17:06:01.094Z,5160.3
2019-03-21T17:07:01.108Z,5177.4
2019-03-21T17:08:10.311Z,5158.6
2019-03-21T17:09:01.243Z,5112.6
2019-03-21T17:10:06.137Z,5129.5
2019-03-21T17:11:01.124Z,5118.9
2019-03-21T17:12:01.110Z,5145.8
2019-03-21T17:13:04.500Z,5164.3
2019-03-21T17:14:02.032Z,5162.7
2019-03-21T17:15:01.165Z,5187.7
2019-03-21T17:16:01.104Z,5163.3
2019-03-21T17:17:01.108Z,5124.2
2019-03-21T17:18:01.111Z,5041.7
2019-03-21T17:19:01.344Z,4933.1
2019-03-21T17:20:03.648Z,4772.4
2019-03-21T17:21:01.112Z,4643.9
2019-03-21T17:22:01.139Z,4466.1
2019-03-21T17:23:01.106Z,4249.1
2019-03-21T17:24:01.265Z,4039.9
2019-03-21T17:25:01.143Z,3805.1
2019-03-21T17:26:01.108Z,3616.1
2019-03-21T17:27:01.106Z,3389.5
2019-03-21T17:28:01.111Z,3198.1
2019-03-21T17:29:01.354Z,3024.5
2019-03-21T17:30:01.146Z,2795.5
2019-03-21T17:31:01.109Z,2588.4
2019-03-21T17:32:01.103Z,2381.7
2019-03-21T17:33:01.103Z,2216.5
2019-03-21T17:35:02.094Z,2067.7
2019-03-21T17:36:01.447Z,1918.3
2019-03-21T17:37:01.098Z,1747.6
2019-03-21T17:38:01.097Z,1594.1
2019-03-21T17:39:01.097Z,1472.1
2019-03-21T17:40:01.306Z,1363.0
2019-03-21T17:41:01.101Z,1249.3
2019-03-21T17:42:01.107Z,1127.8
2019-03-21T17:43:01.096Z,1012.2
2019-03-21T17:44:01.096Z,907.6
2019-03-21T17:45:01.255Z,811.1
2019-03-21T17:46:01.097Z,735.3
2019-03-21T17:47:01.095Z,670.3
2019-03-21T17:48:01.098Z,608.6
2019-03-21T17:49:01.105Z,541.7
2019-03-21T17:50:01.244Z,476.5
2019-03-21T17:51:01.098Z,420.5
2019-03-21T17:52:01.093Z,370.3
2019-03-21T17:53:01.161Z,326.5
2019-03-21T17:54:01.102Z,287.4
2019-03-21T17:55:01.261Z,253.0
2019-03-21T17:56:01.070Z,221.3
2019-03-21T17:57:01.094Z,191.2
2019-03-21T17:58:01.067Z,164.9
2019-03-21T17:59:01.095Z,140.1
2019-03-21T18:00:01.259Z,119.7
2019-03-21T18:01:01.099Z,100.7
2019-03-21T18:02:02.134Z,84.1
2019-03-21T18:03:01.093Z,70.3
2019-03-21T18:04:01.100Z,59.3
2019-03-21T18:05:01.253Z,49.5
2019-03-21T18:06:01.064Z,41.0
2019-03-21T18:07:01.095Z,34.1
2019-03-21T18:08:01.103Z,28.9
2019-03-21T18:09:01.070Z,24.3
2019-03-21T18:10:01.281Z,20.7
2019-03-21T18:11:01.099Z,17.9
2019-03-21T18:12:01.096Z,15.7
2019-03-21T18:13:01.158Z,13.7
2019-03-21T18:14:01.099Z,11.9
2019-03-21T18:15:01.259Z,10.5
2019-03-21T18:16:01.174Z,9.1
2019-03-21T18:17:01.100Z,7.8
2019-03-21T18:18:02.949Z,6.7
2019-03-21T18:19:01.105Z,5.7
2019-03-21T18:20:01.277Z,4.9
2019-03-21T18:21:01.073Z,4.1
2019-03-21T18:22:01.107Z,3.5
2019-03-21T18:23:01.104Z,3.1
2019-03-21T18:24:01.074Z,2.7
2019-03-21T18:25:02.289Z,2.3
2019-03-21T18:26:01.118Z,2.1
2019-03-21T18:27:01.109Z,1.9
2019-03-21T18:28:01.117Z,1.7
2019-03-21T18:29:01.106Z,1.5
2019-03-21T18:30:01.316Z,1.3
2019-03-21T18:31:01.126Z,1.1
2019-03-21T18:33:01.166Z,1.0
2019-03-21T18:34:01.103Z,0.9
2019-03-21T18:35:01.351Z,0.7
2019-03-21T18:36:01.103Z,0.6
2019-03-21T18:37:01.171Z,0.5
2019-03-21T18:39:01.107Z,0.4
2019-03-21T18:40:01.298Z,0.3
2019-03-21T18:42:01.104Z,0.2
2019-03-21T18:43:01.104Z,0.1
